Austin, Utah
Current Conditions -  °F | °C
As of 3:52 AM on Saturday 20 Dec 2014 (Local Time) from KMLF Reporting Station
Clear Clear  
Wind Chill: 23°   Ceiling: Unl
Heat Index: 32°   Visibility: 10mi
Dew Point: 25°   Wind: 13mph
Humidity: 75%   Direction: 200°SSW
Pressure: 30.13"   Gusts: NA
Location:  38.6125°N, 112.081°W
Report Text: KMLF 201052Z AUTO 20011KT 10SM CLR 00/M04 A3013 RMK AO2 SLP197 T00001039 TSNO
Loading
Personal Weather Stations






























Interactive Weather Map New forecast layout! Learn more

10-Day Weather Forecast

Advertisements
Track Severe Weather on mobile